Cleveland, Texas
Current Conditions -  °F | °C
As of 3:54 AM on Thursday 29 Jan 2015 (Local Time) from K6R3 Reporting Station
Moderate Rain Moderate Rain  
Wind Chill: 14°   Ceiling: NA
Heat Index: 14°   Visibility: 0.5mi
Dew Point: 14°   Wind: 5mph
Humidity: 100%   Direction: 200°SSW
Pressure: 30.16"   Gusts: NA
Location:  30.34°N, 95.09°W
Report Text: K6R3 290954Z AUTO 20004KT 1/2SM RA 14/14 A3016 RMK AO2
Loading
Personal Weather Stations






























Interactive Weather Map New forecast layout! Learn more

10-Day Weather Forecast

Advertisements
Track Severe Weather on mobile